Norwegian Epic — C6XP7 — position and weather

sailwx.info

Track history (hours):
 
Tides and Currents Weather Stations Pressure Air Temp Water Temp Dewpoint Dewpoint Depression Visibility Wind Speed Wind Dir Waves Ship Positions

Norwegian Epic

Last reported at 2016-Aug-30 20:10 UTC. Time now 2016-Sep-01 03:42 UTC.
Position N 40°42' E 013°16'.

Length 329 m; draft 9.2 m.

Type: Passenger vessel. MMSI: 311018500.

Date/timePositionNaut miles runAvg speedWind from/ knotsBaromVisibWave heightAir tempDewpointWater temp
2016-Aug-30 20:10N 40°42' E 013°16'1117.5
2016-Aug-30 19:33N 40°40' E 013°30'1817.6
2016-Aug-30 18:33N 40°38' E 013°53'1716.5
2016-Aug-30 17:33N 40°45' E 014°13'6 5.5
2016-Aug-30 16:32N 40°50' E 014°16'0 0.0
2016-Aug-30 15:33N 40°50' E 014°16'0 0.0
2016-Aug-30 14:27N 40°50' E 014°16'0 0.0
2016-Aug-30 13:31N 40°50' E 014°16'0 0.0
2016-Aug-30 12:32N 40°50' E 014°16'0 0.0
2016-Aug-30 11:32N 40°50' E 014°16'0 0.0
2016-Aug-30 10:33N 40°50' E 014°16'0 0.0
2016-Aug-30 09:28N 40°50' E 014°16'0 0.0
2016-Aug-30 08:22N 40°50' E 014°16'0 0.0
2016-Aug-30 07:17N 40°50' E 014°16'0 0.0
2016-Aug-30 05:31N 40°50' E 014°16'0 0.1
2016-Aug-30 04:33N 40°50' E 014°16'9 6.8
2016-Aug-30 03:10N 40°42' E 014°09'912.1
2016-Aug-30 02:26N 40°39' E 013°58'1612.7
2016-Aug-30 01:10N 40°39' E 013°37'15514.5
2016-Aug-29 14:27N 41°12' E 010°16'1617.0
2016-Aug-29 13:32N 41°16' E 009°56'2117.2
2016-Aug-29 12:20N 41°21' E 009°29'20617.0
2016-Aug-29 00:13N 41°16' E 004°55'1117.0
2016-Aug-28 23:33N 41°16' E 004°40'1817.0
2016-Aug-28 22:31N 41°16' E 004°16'2117.9
2016-Aug-28 21:21N 41°16' E 003°49'1417.9
2016-Aug-28 20:33N 41°16' E 003°29'1817.9
2016-Aug-28 19:33N 41°16' E 003°06'1818.0
2016-Aug-28 18:33N 41°16' E 002°42'1211.7
2016-Aug-28 17:33N 41°15' E 002°26'1313.0
2016-Aug-28 16:33N 41°20' E 002°10'2 1.7
2016-Aug-28 15:29N 41°22' E 002°11'0 0.0
2016-Aug-28 14:26N 41°22' E 002°11'0 0.0
2016-Aug-28 12:28N 41°22' E 002°11'86 5.6
2016-Aug-27 21:16N 42°34' E 003°13'1419.0
2016-Aug-27 20:33N 42°27' E 003°28'2221.8
2016-Aug-27 19:34N 42°16' E 003°54'2019.8
2016-Aug-27 18:32N 42°30' E 004°14'1717.2
2016-Aug-27 17:33N 42°42' E 004°31'1717.2
2016-Aug-27 16:33N 42°54' E 004°47'1716.8
2016-Aug-27 15:33N 43°06' E 005°02'1616.3
2016-Aug-27 14:34N 43°19' E 005°16'3 2.8
2016-Aug-27 13:19N 43°21' E 005°20'0 0.0
2016-Aug-27 12:32N 43°21' E 005°20'0 0.0
2016-Aug-27 11:29N 43°21' E 005°20'0 0.0
2016-Aug-27 10:27N 43°21' E 005°20'0 0.0
2016-Aug-27 09:25N 43°21' E 005°20'0 0.0
2016-Aug-27 08:22N 43°21' E 005°20'0 0.0
2016-Aug-27 07:32N 43°21' E 005°20'0 0.0
2016-Aug-27 06:33N 43°21' E 005°20'0 0.0
2016-Aug-27 04:33N 43°21' E 005°20'6 5.9
2016-Aug-27 03:33N 43°18' E 005°13'1110.6
2016-Aug-27 02:34N 43°07' E 005°11'1210.8
2016-Aug-27 01:27N 43°02' E 005°25'1111.1
2016-Aug-27 00:26N 42°58' E 005°40'1011.6
2016-Aug-26 23:33N 42°54' E 005°53'1711.6
2016-Aug-26 22:04N 42°48' E 006°15'611.2
2016-Aug-26 21:33N 42°46' E 006°22'1111.4
2016-Aug-26 20:33N 42°46' E 006°38'2311.4
2016-Aug-26 18:33N 43°04' E 006°57'1212.3
2016-Aug-26 17:34N 43°16' E 006°60'1312.8
2016-Aug-26 16:34N 43°28' E 007°00'4 3.7
2016-Aug-26 15:33N 43°32' E 007°01'0 0.0
2016-Aug-26 14:32N 43°32' E 007°01'0 0.0
2016-Aug-26 13:31N 43°32' E 007°01'0 0.0
2016-Aug-26 12:33N 43°32' E 007°01'0 0.0
2016-Aug-26 11:30N 43°32' E 007°01'0 0.0
2016-Aug-26 10:31N 43°32' E 007°01'0 0.4
2016-Aug-26 09:32N 43°32' E 007°01'0 0.5
2016-Aug-26 08:33N 43°32' E 007°01'0 0.1
2016-Aug-26 07:33N 43°32' E 007°01'0 0.0
2016-Aug-26 06:28N 43°32' E 007°01'6 2.9
2016-Aug-26 04:33N 43°28' E 007°06'1312.8
2016-Aug-26 03:33N 43°29' E 007°23'1212.4
2016-Aug-26 02:33N 43°29' E 007°40'1312.6
2016-Aug-26 01:34N 43°29' E 007°58'1312.9
2016-Aug-26 00:33N 43°29' E 008°16'1313.1
2016-Aug-25 23:33N 43°30' E 008°34'1313.2
2016-Aug-25 22:33N 43°30' E 008°52'1312.8
2016-Aug-25 21:33N 43°31' E 009°09'1212.1
2016-Aug-25 20:33N 43°31' E 009°26'1211.9
2016-Aug-25 19:34N 43°31' E 009°42'1212.0
2016-Aug-25 18:34N 43°31' E 009°59'1211.7
2016-Aug-25 17:34N 43°32' E 010°15'2 2.4
2016-Aug-25 16:31N 43°33' E 010°18'0 0.0
2016-Aug-25 15:31N 43°33' E 010°18'0 0.0
2016-Aug-25 14:32N 43°33' E 010°18'0 0.0
2016-Aug-25 13:33N 43°33' E 010°18'0 0.0
2016-Aug-25 12:33N 43°33' E 010°18'0 0.0
2016-Aug-25 11:31N 43°33' E 010°18'0 0.0
2016-Aug-25 10:32N 43°33' E 010°18'0 0.0
2016-Aug-25 09:33N 43°33' E 010°18'0 0.0
2016-Aug-25 08:33N 43°33' E 010°18'0 0.0
2016-Aug-25 07:28N 43°33' E 010°18'0 0.0
2016-Aug-25 06:32N 43°33' E 010°18'2 1.0
2016-Aug-25 04:33N 43°32' E 010°16'7 6.5
2016-Aug-25 03:33N 43°26' E 010°12'1313.3
2016-Aug-25 02:33N 43°13' E 010°07'1615.9
2016-Aug-25 01:33N 42°58' E 010°02'1615.8
2016-Aug-25 00:33N 42°43' E 009°56'1616.1
2016-Aug-24 23:33N 42°27' E 009°55'210 7.2
2016-Aug-23 18:32N 40°39' E 013°55'1617.0
2016-Aug-23 17:33N 40°46' E 014°14'4 3.5
2016-Aug-23 16:27N 40°50' E 014°16'0 0.0
2016-Aug-23 15:27N 40°50' E 014°16'0 0.0
2016-Aug-23 14:22N 40°50' E 014°16'0 0.0
2016-Aug-23 13:29N 40°50' E 014°16'0 0.0
2016-Aug-23 12:23N 40°50' E 014°16'0 0.0
2016-Aug-23 11:24N 40°50' E 014°16'0 0.0
2016-Aug-23 09:31N 40°50' E 014°16'0 0.0
2016-Aug-23 08:26N 40°50' E 014°16'0 0.0
2016-Aug-23 07:21N 40°50' E 014°16'0 0.0
2016-Aug-23 06:33N 40°50' E 014°16'0 0.0
2016-Aug-23 05:28N 40°50' E 014°16'0 0.0
2016-Aug-23 04:30N 40°50' E 014°16'5 5.1
2016-Aug-23 03:33N 40°45' E 014°14'1413.5
2016-Aug-23 02:33N 40°39' E 013°59'1714.0
2016-Aug-23 01:22N 40°39' E 013°37'15515.8
2016-Aug-22 15:33N 41°12' E 010°17'1716.6
2016-Aug-22 14:32N 41°16' E 009°55'27316.7
2016-Aug-21 22:09N 41°16' E 003°52'1117.7
2016-Aug-21 21:33N 41°16' E 003°38'1717.1
2016-Aug-21 20:33N 41°16' E 003°15'1717.3
2016-Aug-21 19:33N 41°16' E 002°52'1717.1
2016-Aug-21 18:33N 41°16' E 002°29'1413.8
2016-Aug-21 17:31N 41°18' E 002°10'4 3.4
2016-Aug-21 16:24N 41°22' E 002°11'0 0.0
2016-Aug-21 15:33N 41°22' E 002°11'0 0.0
2016-Aug-21 14:31N 41°22' E 002°11'0 0.0
2016-Aug-21 13:32N 41°22' E 002°11'0 0.0
2016-Aug-21 12:32N 41°22' E 002°11'0 0.0
2016-Aug-21 11:33N 41°22' E 002°11'0 0.0
2016-Aug-21 10:31N 41°22' E 002°11'0 0.0
2016-Aug-21 09:31N 41°22' E 002°11'0 0.0
2016-Aug-21 08:32N 41°22' E 002°11'0 0.0
2016-Aug-21 07:33N 41°22' E 002°11'0 0.1
2016-Aug-21 02:31N 41°21' E 002°11'6 6.3
2016-Aug-21 01:33N 41°18' E 002°17'1616.0
2016-Aug-21 00:33N 41°25' E 002°36'3916.6
2016-Aug-20 22:13N 41°47' E 003°19'  
Track history (hours):
 
Tides and Currents Weather Stations Pressure Air Temp Water Temp Dewpoint Dewpoint Depression Visibility Wind Speed Wind Dir Waves Ship Positions

Norwegian Epic

Last reported at 2016-Aug-30 20:10 UTC. Time now 2016-Sep-01 03:42 UTC.
Position N 40°42' E 013°16'.

Length 329 m; draft 9.2 m.

Type: Passenger vessel. MMSI: 311018500.

Date/timePositionNaut miles runAvg speedWind from/ knotsBaromVisibWave heightAir tempDewpointWater temp
2016-Aug-30 20:10N 40°42' E 013°16'1117.5
2016-Aug-30 19:33N 40°40' E 013°30'1817.6
2016-Aug-30 18:33N 40°38' E 013°53'1716.5
2016-Aug-30 17:33N 40°45' E 014°13'6 5.5
2016-Aug-30 16:32N 40°50' E 014°16'0 0.0
2016-Aug-30 15:33N 40°50' E 014°16'0 0.0
2016-Aug-30 14:27N 40°50' E 014°16'0 0.0
2016-Aug-30 13:31N 40°50' E 014°16'0 0.0
2016-Aug-30 12:32N 40°50' E 014°16'0 0.0
2016-Aug-30 11:32N 40°50' E 014°16'0 0.0
2016-Aug-30 10:33N 40°50' E 014°16'0 0.0
2016-Aug-30 09:28N 40°50' E 014°16'0 0.0
2016-Aug-30 08:22N 40°50' E 014°16'0 0.0
2016-Aug-30 07:17N 40°50' E 014°16'0 0.0
2016-Aug-30 05:31N 40°50' E 014°16'0 0.1
2016-Aug-30 04:33N 40°50' E 014°16'9 6.8
2016-Aug-30 03:10N 40°42' E 014°09'912.1
2016-Aug-30 02:26N 40°39' E 013°58'1612.7
2016-Aug-30 01:10N 40°39' E 013°37'15514.5
2016-Aug-29 14:27N 41°12' E 010°16'1617.0
2016-Aug-29 13:32N 41°16' E 009°56'2117.2
2016-Aug-29 12:20N 41°21' E 009°29'20617.0
2016-Aug-29 00:13N 41°16' E 004°55'1117.0
2016-Aug-28 23:33N 41°16' E 004°40'1817.0
2016-Aug-28 22:31N 41°16' E 004°16'2117.9
2016-Aug-28 21:21N 41°16' E 003°49'1417.9
2016-Aug-28 20:33N 41°16' E 003°29'1817.9
2016-Aug-28 19:33N 41°16' E 003°06'1818.0
2016-Aug-28 18:33N 41°16' E 002°42'1211.7
2016-Aug-28 17:33N 41°15' E 002°26'1313.0
2016-Aug-28 16:33N 41°20' E 002°10'2 1.7
2016-Aug-28 15:29N 41°22' E 002°11'0 0.0
2016-Aug-28 14:26N 41°22' E 002°11'0 0.0
2016-Aug-28 12:28N 41°22' E 002°11'86 5.6
2016-Aug-27 21:16N 42°34' E 003°13'1419.0
2016-Aug-27 20:33N 42°27' E 003°28'2221.8
2016-Aug-27 19:34N 42°16' E 003°54'2019.8
2016-Aug-27 18:32N 42°30' E 004°14'1717.2
2016-Aug-27 17:33N 42°42' E 004°31'1717.2
2016-Aug-27 16:33N 42°54' E 004°47'1716.8
2016-Aug-27 15:33N 43°06' E 005°02'1616.3
2016-Aug-27 14:34N 43°19' E 005°16'3 2.8
2016-Aug-27 13:19N 43°21' E 005°20'0 0.0
2016-Aug-27 12:32N 43°21' E 005°20'0 0.0
2016-Aug-27 11:29N 43°21' E 005°20'0 0.0
2016-Aug-27 10:27N 43°21' E 005°20'0 0.0
2016-Aug-27 09:25N 43°21' E 005°20'0 0.0
2016-Aug-27 08:22N 43°21' E 005°20'0 0.0
2016-Aug-27 07:32N 43°21' E 005°20'0 0.0
2016-Aug-27 06:33N 43°21' E 005°20'0 0.0
2016-Aug-27 04:33N 43°21' E 005°20'6 5.9
2016-Aug-27 03:33N 43°18' E 005°13'1110.6
2016-Aug-27 02:34N 43°07' E 005°11'1210.8
2016-Aug-27 01:27N 43°02' E 005°25'1111.1
2016-Aug-27 00:26N 42°58' E 005°40'1011.6
2016-Aug-26 23:33N 42°54' E 005°53'1711.6
2016-Aug-26 22:04N 42°48' E 006°15'611.2
2016-Aug-26 21:33N 42°46' E 006°22'1111.4
2016-Aug-26 20:33N 42°46' E 006°38'2311.4
2016-Aug-26 18:33N 43°04' E 006°57'1212.3
2016-Aug-26 17:34N 43°16' E 006°60'1312.8
2016-Aug-26 16:34N 43°28' E 007°00'4 3.7
2016-Aug-26 15:33N 43°32' E 007°01'0 0.0
2016-Aug-26 14:32N 43°32' E 007°01'0 0.0
2016-Aug-26 13:31N 43°32' E 007°01'0 0.0
2016-Aug-26 12:33N 43°32' E 007°01'0 0.0
2016-Aug-26 11:30N 43°32' E 007°01'0 0.0
2016-Aug-26 10:31N 43°32' E 007°01'0 0.4
2016-Aug-26 09:32N 43°32' E 007°01'0 0.5
2016-Aug-26 08:33N 43°32' E 007°01'0 0.1
2016-Aug-26 07:33N 43°32' E 007°01'0 0.0
2016-Aug-26 06:28N 43°32' E 007°01'6 2.9
2016-Aug-26 04:33N 43°28' E 007°06'1312.8
2016-Aug-26 03:33N 43°29' E 007°23'1212.4
2016-Aug-26 02:33N 43°29' E 007°40'1312.6
2016-Aug-26 01:34N 43°29' E 007°58'1312.9
2016-Aug-26 00:33N 43°29' E 008°16'1313.1
2016-Aug-25 23:33N 43°30' E 008°34'1313.2
2016-Aug-25 22:33N 43°30' E 008°52'1312.8
2016-Aug-25 21:33N 43°31' E 009°09'1212.1
2016-Aug-25 20:33N 43°31' E 009°26'1211.9
2016-Aug-25 19:34N 43°31' E 009°42'1212.0
2016-Aug-25 18:34N 43°31' E 009°59'1211.7
2016-Aug-25 17:34N 43°32' E 010°15'2 2.4
2016-Aug-25 16:31N 43°33' E 010°18'0 0.0
2016-Aug-25 15:31N 43°33' E 010°18'0 0.0
2016-Aug-25 14:32N 43°33' E 010°18'0 0.0
2016-Aug-25 13:33N 43°33' E 010°18'0 0.0
2016-Aug-25 12:33N 43°33' E 010°18'0 0.0
2016-Aug-25 11:31N 43°33' E 010°18'0 0.0
2016-Aug-25 10:32N 43°33' E 010°18'0 0.0
2016-Aug-25 09:33N 43°33' E 010°18'0 0.0
2016-Aug-25 08:33N 43°33' E 010°18'0 0.0
2016-Aug-25 07:28N 43°33' E 010°18'0 0.0
2016-Aug-25 06:32N 43°33' E 010°18'2 1.0
2016-Aug-25 04:33N 43°32' E 010°16'7 6.5
2016-Aug-25 03:33N 43°26' E 010°12'1313.3
2016-Aug-25 02:33N 43°13' E 010°07'1615.9
2016-Aug-25 01:33N 42°58' E 010°02'1615.8
2016-Aug-25 00:33N 42°43' E 009°56'1616.1
2016-Aug-24 23:33N 42°27' E 009°55'210 7.2
2016-Aug-23 18:32N 40°39' E 013°55'1617.0
2016-Aug-23 17:33N 40°46' E 014°14'4 3.5
2016-Aug-23 16:27N 40°50' E 014°16'0 0.0
2016-Aug-23 15:27N 40°50' E 014°16'0 0.0
2016-Aug-23 14:22N 40°50' E 014°16'0 0.0
2016-Aug-23 13:29N 40°50' E 014°16'0 0.0
2016-Aug-23 12:23N 40°50' E 014°16'0 0.0
2016-Aug-23 11:24N 40°50' E 014°16'0 0.0
2016-Aug-23 09:31N 40°50' E 014°16'0 0.0
2016-Aug-23 08:26N 40°50' E 014°16'0 0.0
2016-Aug-23 07:21N 40°50' E 014°16'0 0.0
2016-Aug-23 06:33N 40°50' E 014°16'0 0.0
2016-Aug-23 05:28N 40°50' E 014°16'0 0.0
2016-Aug-23 04:30N 40°50' E 014°16'5 5.1
2016-Aug-23 03:33N 40°45' E 014°14'1413.5
2016-Aug-23 02:33N 40°39' E 013°59'1714.0
2016-Aug-23 01:22N 40°39' E 013°37'15515.8
2016-Aug-22 15:33N 41°12' E 010°17'1716.6
2016-Aug-22 14:32N 41°16' E 009°55'27316.7
2016-Aug-21 22:09N 41°16' E 003°52'1117.7
2016-Aug-21 21:33N 41°16' E 003°38'1717.1
2016-Aug-21 20:33N 41°16' E 003°15'1717.3
2016-Aug-21 19:33N 41°16' E 002°52'1717.1
2016-Aug-21 18:33N 41°16' E 002°29'1413.8
2016-Aug-21 17:31N 41°18' E 002°10'4 3.4
2016-Aug-21 16:24N 41°22' E 002°11'0 0.0
2016-Aug-21 15:33N 41°22' E 002°11'0 0.0
2016-Aug-21 14:31N 41°22' E 002°11'0 0.0
2016-Aug-21 13:32N 41°22' E 002°11'0 0.0
2016-Aug-21 12:32N 41°22' E 002°11'0 0.0
2016-Aug-21 11:33N 41°22' E 002°11'0 0.0
2016-Aug-21 10:31N 41°22' E 002°11'0 0.0
2016-Aug-21 09:31N 41°22' E 002°11'0 0.0
2016-Aug-21 08:32N 41°22' E 002°11'0 0.0
2016-Aug-21 07:33N 41°22' E 002°11'0 0.1
2016-Aug-21 02:31N 41°21' E 002°11'6 6.3
2016-Aug-21 01:33N 41°18' E 002°17'1616.0
2016-Aug-21 00:33N 41°25' E 002°36'3916.6
2016-Aug-20 22:13N 41°47' E 003°19'  

Dump ship's entire track history